Time;durP1;ratioP1;P1;durP2;ratioP2;P2;SDS_P1;SDS_P2;PMS_P1;PMS_P2;Temp;Humidity;BMP_temperature;BMP_pressure;BME280_temperature;BME280_humidity;BME280_pressure;Samples;Min_cycle;Max_cycle;Signal;HPM_P1;HPM_P2
2022/01/07 00:02:19;;;;;;;8.40;3.95;;;;;;;;;;5039661;28;20057;-72
2022/01/07 00:04:46;;;;;;;10.93;3.97;;;;;;;;;;5047043;28;20506;-71
2022/01/07 00:07:12;;;;;;;15.23;4.72;;;;;;;;;;5048905;28;20073;-72
2022/01/07 00:09:38;;;;;;;14.27;3.95;;;;;;;;;;5045137;28;20078;-71
2022/01/07 00:12:06;;;;;;;9.45;3.30;;;;;;;;;;5038466;28;20382;-71
2022/01/07 00:14:32;;;;;;;9.93;4.50;;;;;;;;;;5039169;28;20140;-72
2022/01/07 00:16:58;;;;;;;10.90;4.05;;;;;;;;;;5046932;28;20057;-71
2022/01/07 00:19:25;;;;;;;15.43;4.75;;;;;;;;;;5040339;28;20058;-71
2022/01/07 00:21:51;;;;;;;10.95;4.63;;;;;;;;;;5046600;28;20049;-70
2022/01/07 00:24:18;;;;;;;14.20;4.80;;;;;;;;;;5038381;28;20049;-71
2022/01/07 00:26:44;;;;;;;8.35;4.38;;;;;;;;;;5043938;28;20057;-71
2022/01/07 00:29:10;;;;;;;12.85;4.80;;;;;;;;;;5036178;28;20049;-71
2022/01/07 00:31:37;;;;;;;11.65;5.07;;;;;;;;;;5035065;28;20101;-70
2022/01/07 00:34:04;;;;;;;13.43;5.10;;;;;;;;;;5036966;28;20525;-72
2022/01/07 00:36:30;;;;;;;9.50;4.18;;;;;;;;;;5040074;28;20049;-72
2022/01/07 00:38:56;;;;;;;12.40;4.55;;;;;;;;;;5034688;28;20592;-70
2022/01/07 00:41:22;;;;;;;10.00;4.80;;;;;;;;;;5035345;28;20137;-71
2022/01/07 00:43:50;;;;;;;7.30;4.15;;;;;;;;;;5033640;28;20062;-70
2022/01/07 00:46:19;;;;;;;10.70;4.68;;;;;;;;;;5032695;28;20088;-70
2022/01/07 00:48:45;;;;;;;12.98;5.35;;;;;;;;;;5046677;28;20149;-70
2022/01/07 00:51:11;;;;;;;11.23;5.38;;;;;;;;;;5053942;28;20046;-71
2022/01/07 00:53:38;;;;;;;12.55;5.38;;;;;;;;;;5043134;28;20054;-70
2022/01/07 00:56:04;;;;;;;10.20;5.38;;;;;;;;;;5034602;28;20053;-71
2022/01/07 00:58:30;;;;;;;13.60;6.22;;;;;;;;;;5035484;28;20050;-71
2022/01/07 01:00:56;;;;;;;13.40;5.85;;;;;;;;;;5036634;28;20049;-71
2022/01/07 01:03:23;;;;;;;10.90;5.35;;;;;;;;;;5034687;28;20058;-71
2022/01/07 01:05:49;;;;;;;5.85;4.30;;;;;;;;;;5036705;28;20065;-71
2022/01/07 01:08:16;;;;;;;7.85;4.57;;;;;;;;;;5044525;28;20107;-70
2022/01/07 01:10:42;;;;;;;10.63;5.13;;;;;;;;;;5033675;28;20050;-70
2022/01/07 01:13:09;;;;;;;17.98;5.05;;;;;;;;;;5033564;28;20387;-71
2022/01/07 01:15:35;;;;;;;10.50;4.40;;;;;;;;;;5035424;28;20084;-71
2022/01/07 01:18:02;;;;;;;11.00;4.55;;;;;;;;;;5034547;28;20072;-71
2022/01/07 01:20:28;;;;;;;9.23;5.38;;;;;;;;;;5034563;28;20108;-70
2022/01/07 01:22:55;;;;;;;9.25;4.50;;;;;;;;;;5035317;28;20057;-71
2022/01/07 01:25:21;;;;;;;7.72;4.28;;;;;;;;;;5048114;28;20057;-71
2022/01/07 01:27:48;;;;;;;12.65;4.72;;;;;;;;;;5033920;28;20058;-73
2022/01/07 01:30:17;;;;;;;12.23;4.82;;;;;;;;;;5048157;28;20149;-71
2022/01/07 01:32:45;;;;;;;12.15;4.55;;;;;;;;;;5035139;28;20057;-71
2022/01/07 01:35:11;;;;;;;12.82;5.45;;;;;;;;;;5043055;28;20065;-67
2022/01/07 01:37:38;;;;;;;8.93;4.18;;;;;;;;;;5041418;28;20061;-71
2022/01/07 01:40:05;;;;;;;15.52;5.45;;;;;;;;;;5044276;28;20058;-72
2022/01/07 01:42:31;;;;;;;10.75;5.05;;;;;;;;;;5033891;28;20502;-71
2022/01/07 01:44:58;;;;;;;13.30;4.57;;;;;;;;;;5035827;28;20763;-71
2022/01/07 01:47:24;;;;;;;11.45;4.90;;;;;;;;;;5033805;28;20061;-71
2022/01/07 01:49:50;;;;;;;10.75;4.57;;;;;;;;;;5033660;28;20498;-71
2022/01/07 01:52:17;;;;;;;11.82;5.30;;;;;;;;;;5034335;28;20058;-71
2022/01/07 01:54:43;;;;;;;11.90;4.53;;;;;;;;;;5047383;28;20508;-70
2022/01/07 01:57:10;;;;;;;11.68;5.20;;;;;;;;;;5044352;28;20050;-71
2022/01/07 01:59:37;;;;;;;12.85;5.65;;;;;;;;;;5034243;28;20518;-72
2022/01/07 02:02:04;;;;;;;12.00;5.63;;;;;;;;;;5045217;28;20057;-72
2022/01/07 02:04:30;;;;;;;12.27;5.07;;;;;;;;;;5036548;28;20145;-72
2022/01/07 02:06:57;;;;;;;9.50;5.07;;;;;;;;;;5033101;28;20064;-70
2022/01/07 02:09:31;;;;;;;9.85;5.30;;;;;;;;;;5032978;28;20058;-73
2022/01/07 02:11:58;;;;;;;17.73;6.27;;;;;;;;;;5032867;28;20138;-70
2022/01/07 02:14:24;;;;;;;11.98;5.32;;;;;;;;;;5028463;28;20112;-71
2022/01/07 02:16:50;;;;;;;16.45;6.10;;;;;;;;;;5040523;28;20052;-72
2022/01/07 02:19:16;;;;;;;15.77;5.80;;;;;;;;;;5032432;28;20064;-70
2022/01/07 02:21:44;;;;;;;10.90;6.57;;;;;;;;;;5041591;28;20425;-70
2022/01/07 02:24:10;;;;;;;9.23;5.43;;;;;;;;;;5046809;28;20050;-70
2022/01/07 02:26:37;;;;;;;14.15;6.50;;;;;;;;;;5034727;28;20050;-71
2022/01/07 02:29:07;;;;;;;15.95;6.18;;;;;;;;;;5034691;28;20516;-72
2022/01/07 02:31:33;;;;;;;10.80;6.03;;;;;;;;;;5033045;28;20049;-70
2022/01/07 02:33:59;;;;;;;9.90;5.75;;;;;;;;;;5034982;28;20525;-71
2022/01/07 02:36:26;;;;;;;10.70;5.53;;;;;;;;;;5035110;28;20085;-71
2022/01/07 02:38:52;;;;;;;13.30;6.07;;;;;;;;;;5040799;28;20532;-72
2022/01/07 02:41:18;;;;;;;10.40;5.53;;;;;;;;;;5033486;28;20064;-71
2022/01/07 02:43:45;;;;;;;13.85;6.03;;;;;;;;;;5031218;28;20053;-72
2022/01/07 02:46:11;;;;;;;17.13;6.53;;;;;;;;;;5031623;28;20054;-72
2022/01/07 02:48:38;;;;;;;13.60;5.50;;;;;;;;;;5033043;28;20058;-71
2022/01/07 02:51:04;;;;;;;15.15;6.13;;;;;;;;;;5032319;28;20049;-71
2022/01/07 02:53:30;;;;;;;13.13;6.03;;;;;;;;;;5033142;28;20056;-71
2022/01/07 02:55:56;;;;;;;10.50;6.07;;;;;;;;;;5035411;28;20054;-72
2022/01/07 02:58:23;;;;;;;8.40;5.63;;;;;;;;;;5032596;28;20490;-72
2022/01/07 03:00:49;;;;;;;10.80;5.63;;;;;;;;;;5046658;28;20058;-70
2022/01/07 03:03:15;;;;;;;9.05;5.32;;;;;;;;;;5036751;28;20053;-71
2022/01/07 03:05:42;;;;;;;13.77;6.13;;;;;;;;;;5043240;28;20053;-71
2022/01/07 03:08:09;;;;;;;11.98;5.60;;;;;;;;;;5032845;28;20065;-72
2022/01/07 03:10:36;;;;;;;12.05;5.15;;;;;;;;;;5046309;28;20061;-72
2022/01/07 03:13:03;;;;;;;10.13;4.60;;;;;;;;;;5032164;28;20054;-71
2022/01/07 03:15:30;;;;;;;11.00;4.68;;;;;;;;;;5032912;28;20124;-72
2022/01/07 03:17:57;;;;;;;8.02;4.88;;;;;;;;;;5031859;28;20054;-71
2022/01/07 03:20:23;;;;;;;13.10;5.90;;;;;;;;;;5031048;28;20058;-71
2022/01/07 03:22:50;;;;;;;10.88;6.00;;;;;;;;;;5032696;28;20058;-73
2022/01/07 03:25:16;;;;;;;14.80;5.38;;;;;;;;;;5032650;28;20054;-72
2022/01/07 03:27:43;;;;;;;9.30;5.43;;;;;;;;;;5033217;28;20057;-72
2022/01/07 03:30:10;;;;;;;12.13;5.95;;;;;;;;;;5022818;28;20086;-72
2022/01/07 03:32:37;;;;;;;12.82;5.53;;;;;;;;;;5032306;28;20560;-71
2022/01/07 03:35:05;;;;;;;10.25;5.40;;;;;;;;;;5035063;28;20063;-72
2022/01/07 03:37:31;;;;;;;7.85;5.18;;;;;;;;;;5044788;28;20068;-71
2022/01/07 03:39:57;;;;;;;12.10;5.72;;;;;;;;;;5034826;28;20058;-71
2022/01/07 03:42:24;;;;;;;13.75;5.88;;;;;;;;;;5032508;28;20145;-71
2022/01/07 03:44:50;;;;;;;7.82;5.25;;;;;;;;;;5033615;28;20053;-71
2022/01/07 03:47:16;;;;;;;10.68;5.43;;;;;;;;;;5032258;28;20053;-71
2022/01/07 03:49:42;;;;;;;8.23;5.60;;;;;;;;;;5032035;28;20050;-73
2022/01/07 03:52:09;;;;;;;9.05;6.10;;;;;;;;;;5046250;28;20060;-70
2022/01/07 03:54:35;;;;;;;9.00;5.00;;;;;;;;;;5037694;28;20054;-72
2022/01/07 03:57:01;;;;;;;9.50;4.97;;;;;;;;;;5041134;28;20527;-70
2022/01/07 03:59:30;;;;;;;9.05;5.53;;;;;;;;;;5047234;28;20053;-70
2022/01/07 04:01:56;;;;;;;9.70;5.90;;;;;;;;;;5038260;28;20046;-71
2022/01/07 04:04:22;;;;;;;6.60;5.40;;;;;;;;;;5048935;28;20057;-72
2022/01/07 04:06:49;;;;;;;6.38;4.75;;;;;;;;;;5053209;28;20055;-73
2022/01/07 04:09:15;;;;;;;11.60;6.30;;;;;;;;;;5038841;28;20052;-72
2022/01/07 04:11:41;;;;;;;6.03;4.57;;;;;;;;;;5040766;28;20064;-71
2022/01/07 04:14:08;;;;;;;7.78;5.35;;;;;;;;;;5036986;28;20065;-71
2022/01/07 04:16:34;;;;;;;7.53;5.32;;;;;;;;;;5049013;28;20050;-72
2022/01/07 04:19:01;;;;;;;6.43;5.22;;;;;;;;;;5036769;28;20061;-72
2022/01/07 04:21:27;;;;;;;5.70;4.43;;;;;;;;;;5042626;28;20054;-73
2022/01/07 04:23:53;;;;;;;9.25;5.43;;;;;;;;;;5038254;28;20104;-72
2022/01/07 04:26:20;;;;;;;6.88;5.57;;;;;;;;;;5034932;28;20058;-71
2022/01/07 04:28:46;;;;;;;7.25;5.43;;;;;;;;;;5035058;28;20418;-71
2022/01/07 04:31:12;;;;;;;8.05;5.53;;;;;;;;;;5042767;28;20057;-70
2022/01/07 04:33:39;;;;;;;9.15;5.97;;;;;;;;;;5044995;28;20063;-71
2022/01/07 04:36:05;;;;;;;7.75;6.65;;;;;;;;;;5034674;28;20057;-70
2022/01/07 04:38:32;;;;;;;10.07;6.75;;;;;;;;;;5037635;28;20055;-70
2022/01/07 04:40:58;;;;;;;6.93;6.10;;;;;;;;;;5045777;28;20149;-70
2022/01/07 04:43:24;;;;;;;6.05;5.45;;;;;;;;;;5034836;28;20061;-71
2022/01/07 04:45:51;;;;;;;9.77;6.32;;;;;;;;;;5052760;28;20056;-71
2022/01/07 04:48:18;;;;;;;8.23;7.10;;;;;;;;;;5041198;28;20050;-71
2022/01/07 04:50:44;;;;;;;10.30;7.95;;;;;;;;;;5045508;28;20176;-71
2022/01/07 04:53:11;;;;;;;17.55;9.38;;;;;;;;;;5033681;28;20064;-70
2022/01/07 04:55:38;;;;;;;10.13;7.68;;;;;;;;;;5036808;28;20524;-71
2022/01/07 04:58:05;;;;;;;9.23;7.47;;;;;;;;;;5033687;28;20058;-72
2022/01/07 05:00:32;;;;;;;10.00;7.50;;;;;;;;;;5046389;28;20049;-71
2022/01/07 05:02:58;;;;;;;9.35;7.72;;;;;;;;;;5035199;28;20057;-72
2022/01/07 05:05:25;;;;;;;10.48;8.07;;;;;;;;;;5035252;28;20049;-71
2022/01/07 05:07:51;;;;;;;9.57;8.45;;;;;;;;;;5041334;28;20511;-72
2022/01/07 05:10:17;;;;;;;11.10;8.50;;;;;;;;;;5032192;28;20153;-72
2022/01/07 05:12:44;;;;;;;10.50;8.13;;;;;;;;;;5033452;28;20056;-70
2022/01/07 05:15:11;;;;;;;10.65;9.07;;;;;;;;;;5044236;28;20506;-72
2022/01/07 05:17:37;;;;;;;10.85;8.32;;;;;;;;;;5034477;28;20057;-71
2022/01/07 05:20:04;;;;;;;12.05;9.45;;;;;;;;;;5036160;28;20136;-70
2022/01/07 05:22:31;;;;;;;13.30;9.68;;;;;;;;;;5037908;28;20084;-70
2022/01/07 05:24:57;;;;;;;12.63;9.55;;;;;;;;;;5035610;28;20054;-70
2022/01/07 05:27:23;;;;;;;11.52;10.32;;;;;;;;;;5035257;28;20500;-71
2022/01/07 05:29:49;;;;;;;13.30;10.57;;;;;;;;;;5041479;28;20058;-71
2022/01/07 05:32:16;;;;;;;14.20;10.20;;;;;;;;;;5033764;28;20505;-70
2022/01/07 05:34:42;;;;;;;14.95;10.48;;;;;;;;;;5031017;28;20529;-71
2022/01/07 05:37:10;;;;;;;15.23;11.10;;;;;;;;;;5033683;28;20058;-71
2022/01/07 05:39:36;;;;;;;17.40;11.82;;;;;;;;;;5034595;28;20148;-70
2022/01/07 05:42:04;;;;;;;16.85;11.35;;;;;;;;;;5052487;28;20129;-71
2022/01/07 05:44:30;;;;;;;19.25;12.25;;;;;;;;;;5041503;28;20144;-70
2022/01/07 05:46:57;;;;;;;18.63;12.70;;;;;;;;;;5034685;28;20058;-70
2022/01/07 05:49:23;;;;;;;20.15;13.50;;;;;;;;;;5033850;28;20057;-71
2022/01/07 05:51:49;;;;;;;20.55;12.93;;;;;;;;;;5034040;28;20441;-71
2022/01/07 05:54:16;;;;;;;21.70;13.70;;;;;;;;;;5022539;28;20056;-71
2022/01/07 05:56:42;;;;;;;20.85;14.15;;;;;;;;;;5026190;28;20054;-71
2022/01/07 05:59:08;;;;;;;18.20;12.05;;;;;;;;;;5023073;28;20502;-71
2022/01/07 06:01:34;;;;;;;22.35;14.65;;;;;;;;;;5029924;28;20050;-71
2022/01/07 06:04:01;;;;;;;24.10;14.75;;;;;;;;;;5029357;28;20064;-71
2022/01/07 06:06:27;;;;;;;21.45;14.68;;;;;;;;;;5020651;28;20141;-72
2022/01/07 06:08:54;;;;;;;19.48;14.50;;;;;;;;;;5027779;28;20414;-72
2022/01/07 06:11:20;;;;;;;19.63;14.55;;;;;;;;;;5026374;28;20486;-72
2022/01/07 06:13:46;;;;;;;21.38;16.10;;;;;;;;;;5027457;28;20351;-71
2022/01/07 06:16:13;;;;;;;22.77;15.85;;;;;;;;;;5033660;28;20057;-73
2022/01/07 06:18:50;;;;;;;22.17;16.73;;;;;;;;;;5032770;28;20058;-72
2022/01/07 06:21:17;;;;;;;29.90;17.23;;;;;;;;;;5033408;28;20582;-72
2022/01/07 06:23:43;;;;;;;23.50;15.95;;;;;;;;;;5022859;28;20065;-70
2022/01/07 06:26:10;;;;;;;25.55;17.40;;;;;;;;;;5031074;28;20065;-70
2022/01/07 06:28:36;;;;;;;21.13;15.45;;;;;;;;;;5020447;28;20137;-72
2022/01/07 06:31:02;;;;;;;25.58;16.33;;;;;;;;;;5021077;28;20515;-72
2022/01/07 06:33:29;;;;;;;24.50;18.05;;;;;;;;;;5031795;28;20060;-72
2022/01/07 06:35:55;;;;;;;25.55;18.33;;;;;;;;;;5024414;28;20508;-72
2022/01/07 06:38:21;;;;;;;26.40;17.38;;;;;;;;;;5016582;28;20054;-72
2022/01/07 06:40:47;;;;;;;29.20;18.13;;;;;;;;;;5018966;28;20633;-71
2022/01/07 06:43:14;;;;;;;20.70;17.40;;;;;;;;;;5041557;28;20054;-70
2022/01/07 06:45:40;;;;;;;28.50;18.25;;;;;;;;;;5029927;28;20076;-70
2022/01/07 06:48:06;;;;;;;29.05;18.25;;;;;;;;;;5033045;28;20060;-71
2022/01/07 06:50:33;;;;;;;28.52;18.20;;;;;;;;;;5031512;28;20479;-70
2022/01/07 06:53:00;;;;;;;29.55;19.05;;;;;;;;;;5030635;28;20054;-68
2022/01/07 06:55:45;;;;;;;26.67;19.35;;;;;;;;;;5032390;28;20046;-70
2022/01/07 06:58:12;;;;;;;25.67;18.65;;;;;;;;;;5032336;28;20486;-69
2022/01/07 07:00:38;;;;;;;27.08;19.42;;;;;;;;;;5029992;28;21595;-70
2022/01/07 07:03:10;;;;;;;28.10;20.25;;;;;;;;;;5017489;28;20142;-70
2022/01/07 07:05:36;;;;;;;25.35;19.50;;;;;;;;;;5020965;28;20072;-71
2022/01/07 07:08:03;;;;;;;25.63;19.80;;;;;;;;;;5014396;28;20137;-70
2022/01/07 07:10:29;;;;;;;26.50;19.38;;;;;;;;;;5015696;28;20502;-71
2022/01/07 07:12:56;;;;;;;28.63;18.77;;;;;;;;;;5021168;28;20156;-71
2022/01/07 07:15:22;;;;;;;29.23;19.95;;;;;;;;;;5032889;28;20528;-70
2022/01/07 07:17:48;;;;;;;32.40;20.83;;;;;;;;;;5030615;28;20149;-70
2022/01/07 07:20:15;;;;;;;30.40;20.83;;;;;;;;;;5031759;28;20503;-70
2022/01/07 07:22:41;;;;;;;30.52;20.83;;;;;;;;;;5015348;28;20065;-69
2022/01/07 07:25:07;;;;;;;28.52;20.63;;;;;;;;;;5027533;28;21132;-70
2022/01/07 07:27:36;;;;;;;33.60;22.42;;;;;;;;;;5026117;28;20050;-70
2022/01/07 07:30:06;;;;;;;32.75;19.90;;;;;;;;;;5019162;28;20054;-71
2022/01/07 07:32:33;;;;;;;31.33;20.75;;;;;;;;;;5033643;28;20150;-69
2022/01/07 07:36:26;;;;;;;29.75;19.90;;;;;;;;;;5016558;28;20084;-70
2022/01/07 07:37:48;;;;;;;30.73;20.73;;;;;;;;;;5027181;28;20050;-71
2022/01/07 07:40:16;;;;;;;32.72;21.00;;;;;;;;;;5024716;28;20054;-71
2022/01/07 07:42:43;;;;;;;29.60;21.05;;;;;;;;;;5022345;28;20056;-70
2022/01/07 07:45:12;;;;;;;32.35;20.48;;;;;;;;;;5034412;28;20481;-72
2022/01/07 07:47:38;;;;;;;31.48;20.08;;;;;;;;;;5035695;28;20512;-71
2022/01/07 07:50:05;;;;;;;36.83;21.25;;;;;;;;;;5034380;28;20056;-69
2022/01/07 07:52:31;;;;;;;30.92;20.95;;;;;;;;;;5033151;28;20058;-71
2022/01/07 07:54:57;;;;;;;35.92;21.13;;;;;;;;;;5018830;28;20061;-71
2022/01/07 07:57:23;;;;;;;22.67;18.77;;;;;;;;;;5017497;28;20513;-71
2022/01/07 07:59:50;;;;;;;29.00;19.90;;;;;;;;;;5032558;28;20524;-71
2022/01/07 08:02:16;;;;;;;30.15;20.25;;;;;;;;;;5034399;28;20490;-70
2022/01/07 08:04:43;;;;;;;31.13;20.58;;;;;;;;;;5028173;28;20081;-70
2022/01/07 08:07:15;;;;;;;32.30;19.20;;;;;;;;;;5015612;28;20505;-71
2022/01/07 08:09:43;;;;;;;29.98;19.23;;;;;;;;;;5015688;28;20051;-71
2022/01/07 08:12:22;;;;;;;27.10;18.02;;;;;;;;;;5031944;28;20049;-71
2022/01/07 08:17:34;;;;;;;33.38;19.20;;;;;;;;;;5035560;28;20060;-71
2022/01/07 08:20:00;;;;;;;28.63;17.48;;;;;;;;;;5026383;28;20049;-73
2022/01/07 08:22:28;;;;;;;27.63;16.92;;;;;;;;;;5029920;28;20053;-72
2022/01/07 08:24:54;;;;;;;29.17;18.60;;;;;;;;;;5016291;28;20137;-71
2022/01/07 08:27:21;;;;;;;33.22;19.48;;;;;;;;;;5017652;28;20061;-71
2022/01/07 08:30:10;;;;;;;36.05;19.08;;;;;;;;;;5029846;28;20082;-73
2022/01/07 08:35:21;;;;;;;24.83;17.13;;;;;;;;;;5022969;28;20054;-72
2022/01/07 08:37:48;;;;;;;25.52;18.67;;;;;;;;;;5028957;28;20482;-70
2022/01/07 08:40:14;;;;;;;21.85;16.10;;;;;;;;;;5054175;28;20065;-72
2022/01/07 08:42:40;;;;;;;27.38;16.27;;;;;;;;;;5035645;28;20504;-72
2022/01/07 08:45:07;;;;;;;23.20;15.82;;;;;;;;;;5034989;28;20060;-72
2022/01/07 08:47:33;;;;;;;20.92;16.23;;;;;;;;;;5032574;28;20425;-71
2022/01/07 08:49:59;;;;;;;26.17;14.40;;;;;;;;;;5032116;28;20062;-71
2022/01/07 08:52:26;;;;;;;20.60;14.43;;;;;;;;;;5027622;28;20058;-72
2022/01/07 08:54:52;;;;;;;20.40;13.43;;;;;;;;;;5035137;28;20515;-72
2022/01/07 08:57:20;;;;;;;21.50;13.30;;;;;;;;;;5027056;28;20522;-71
2022/01/07 08:59:47;;;;;;;20.90;12.52;;;;;;;;;;5045273;28;20061;-71
2022/01/07 09:02:13;;;;;;;18.60;13.20;;;;;;;;;;5015564;28;20076;-72
2022/01/07 09:04:40;;;;;;;19.05;12.40;;;;;;;;;;5015274;28;20084;-71
2022/01/07 09:07:06;;;;;;;21.83;12.00;;;;;;;;;;5033782;28;20050;-71
2022/01/07 09:09:33;;;;;;;19.48;11.32;;;;;;;;;;5034418;28;20562;-72
2022/01/07 09:12:03;;;;;;;16.50;10.50;;;;;;;;;;5031643;28;20058;-72
2022/01/07 09:14:29;;;;;;;19.58;10.80;;;;;;;;;;5014943;28;20061;-71
2022/01/07 09:16:55;;;;;;;18.25;10.13;;;;;;;;;;5014972;28;20136;-70
2022/01/07 09:19:22;;;;;;;17.58;9.50;;;;;;;;;;5025383;28;20828;-72
2022/01/07 09:21:48;;;;;;;19.80;9.27;;;;;;;;;;5025322;28;20054;-72
2022/01/07 09:24:14;;;;;;;18.77;10.15;;;;;;;;;;5031361;28;20505;-72
2022/01/07 09:26:40;;;;;;;21.40;10.88;;;;;;;;;;5018864;28;20046;-72
2022/01/07 09:29:07;;;;;;;19.58;10.52;;;;;;;;;;5015850;28;20137;-71
2022/01/07 09:31:33;;;;;;;19.25;10.25;;;;;;;;;;5029987;28;20440;-70
2022/01/07 09:34:00;;;;;;;15.60;9.60;;;;;;;;;;5022053;28;20050;-71
2022/01/07 09:36:47;;;;;;;24.13;9.73;;;;;;;;;;5034371;28;20073;-70
2022/01/07 09:39:13;;;;;;;12.25;8.93;;;;;;;;;;5033901;28;20156;-70
2022/01/07 09:41:41;;;;;;;19.58;8.35;;;;;;;;;;5027542;28;20085;-71
2022/01/07 09:44:10;;;;;;;19.13;8.98;;;;;;;;;;5014562;28;20052;-70
2022/01/07 09:46:37;;;;;;;16.00;8.43;;;;;;;;;;5014933;28;20056;-70
2022/01/07 09:49:04;;;;;;;16.35;8.88;;;;;;;;;;5033233;28;20129;-69
2022/01/07 09:51:30;;;;;;;21.58;9.52;;;;;;;;;;5034376;28;20050;-71
2022/01/07 09:53:59;;;;;;;15.75;8.65;;;;;;;;;;5032701;28;20056;-71
2022/01/07 09:56:26;;;;;;;16.20;9.10;;;;;;;;;;5032764;28;20058;-69
2022/01/07 09:58:52;;;;;;;20.50;9.20;;;;;;;;;;5032345;28;20058;-70
2022/01/07 10:01:20;;;;;;;18.23;8.65;;;;;;;;;;5034293;28;20046;-69
2022/01/07 10:03:46;;;;;;;17.95;9.57;;;;;;;;;;5029398;28;20054;-67
2022/01/07 10:06:17;;;;;;;12.85;8.68;;;;;;;;;;5026490;28;20049;-69
2022/01/07 10:08:44;;;;;;;15.48;8.73;;;;;;;;;;5031059;28;20064;-69
2022/01/07 10:11:18;;;;;;;18.10;8.70;;;;;;;;;;5032105;28;20536;-70
2022/01/07 10:13:46;;;;;;;11.25;8.20;;;;;;;;;;5013996;28;20502;-70
2022/01/07 10:16:19;;;;;;;18.13;9.10;;;;;;;;;;5025387;28;20176;-71
2022/01/07 10:18:50;;;;;;;14.13;8.55;;;;;;;;;;5033941;28;20058;-70
2022/01/07 10:21:17;;;;;;;16.30;10.02;;;;;;;;;;5033683;28;20046;-70
2022/01/07 10:23:44;;;;;;;17.25;10.73;;;;;;;;;;5033749;28;20058;-70
2022/01/07 10:26:11;;;;;;;17.00;9.82;;;;;;;;;;5033061;28;20498;-69
2022/01/07 10:28:37;;;;;;;17.83;9.32;;;;;;;;;;5034285;28;20050;-69
2022/01/07 10:31:06;;;;;;;23.52;10.13;;;;;;;;;;5034177;28;20053;-70
2022/01/07 10:33:37;;;;;;;22.33;9.63;;;;;;;;;;5019135;28;20061;-69
2022/01/07 10:36:06;;;;;;;16.17;10.10;;;;;;;;;;5013676;28;20050;-70
2022/01/07 10:38:34;;;;;;;14.13;9.23;;;;;;;;;;5031229;28;20144;-70
2022/01/07 10:41:01;;;;;;;15.38;9.55;;;;;;;;;;5033281;28;20050;-69
2022/01/07 10:43:35;;;;;;;19.08;9.23;;;;;;;;;;5028584;28;20056;-71
2022/01/07 10:46:11;;;;;;;14.40;9.40;;;;;;;;;;5013593;28;20089;-70
2022/01/07 10:48:47;;;;;;;14.70;9.20;;;;;;;;;;5016360;28;20058;-71
2022/01/07 10:51:14;;;;;;;19.02;9.13;;;;;;;;;;5031098;28;20521;-70
2022/01/07 10:53:41;;;;;;;14.60;8.23;;;;;;;;;;5017144;28;20057;-70
2022/01/07 10:56:08;;;;;;;18.02;8.40;;;;;;;;;;5048680;28;20059;-71
2022/01/07 10:58:58;;;;;;;9.65;7.28;;;;;;;;;;5044249;28;20058;-70
2022/01/07 11:01:24;;;;;;;12.52;7.13;;;;;;;;;;5017707;28;20050;-70
2022/01/07 11:03:52;;;;;;;15.68;7.00;;;;;;;;;;5019871;28;20108;-70
